sensor_id;sensor_type;location;lat;lon;timestamp;temperature;humidity
40374;DHT22;26079;45.958;12.492;2023-02-04T00:01:38;1.40;99.90
40374;DHT22;26079;45.958;12.492;2023-02-04T00:04:04;1.30;99.90
40374;DHT22;26079;45.958;12.492;2023-02-04T00:06:30;1.30;99.90
40374;DHT22;26079;45.958;12.492;2023-02-04T00:08:55;1.30;99.90
40374;DHT22;26079;45.958;12.492;2023-02-04T00:11:21;1.30;99.90
40374;DHT22;26079;45.958;12.492;2023-02-04T00:13:47;1.30;99.90
40374;DHT22;26079;45.958;12.492;2023-02-04T00:16:13;1.20;99.90
40374;DHT22;26079;45.958;12.492;2023-02-04T00:18:38;1.20;99.90
40374;DHT22;26079;45.958;12.492;2023-02-04T00:21:04;1.20;99.90
40374;DHT22;26079;45.958;12.492;2023-02-04T00:23:30;1.20;99.90
40374;DHT22;26079;45.958;12.492;2023-02-04T00:25:56;1.20;99.90
40374;DHT22;26079;45.958;12.492;2023-02-04T00:28:21;1.10;99.90
40374;DHT22;26079;45.958;12.492;2023-02-04T00:30:47;1.10;99.90
40374;DHT22;26079;45.958;12.492;2023-02-04T00:33:13;1.10;99.90
40374;DHT22;26079;45.958;12.492;2023-02-04T00:35:39;1.10;99.90
40374;DHT22;26079;45.958;12.492;2023-02-04T00:38:05;1.10;99.90
40374;DHT22;26079;45.958;12.492;2023-02-04T00:40:31;1.00;99.90
40374;DHT22;26079;45.958;12.492;2023-02-04T00:42:57;0.90;99.90
40374;DHT22;26079;45.958;12.492;2023-02-04T00:45:23;0.90;99.90
40374;DHT22;26079;45.958;12.492;2023-02-04T00:47:50;0.80;99.90
40374;DHT22;26079;45.958;12.492;2023-02-04T00:50:16;0.70;99.90
40374;DHT22;26079;45.958;12.492;2023-02-04T00:52:41;0.70;99.90
40374;DHT22;26079;45.958;12.492;2023-02-04T00:55:07;0.60;99.90
40374;DHT22;26079;45.958;12.492;2023-02-04T00:57:34;0.60;99.90
40374;DHT22;26079;45.958;12.492;2023-02-04T01:00:00;0.60;99.90
40374;DHT22;26079;45.958;12.492;2023-02-04T01:02:26;0.60;99.90
40374;DHT22;26079;45.958;12.492;2023-02-04T01:04:51;0.60;99.90
40374;DHT22;26079;45.958;12.492;2023-02-04T01:07:17;0.60;99.90
40374;DHT22;26079;45.958;12.492;2023-02-04T01:09:44;0.50;99.90
40374;DHT22;26079;45.958;12.492;2023-02-04T01:12:10;0.50;99.90
40374;DHT22;26079;45.958;12.492;2023-02-04T01:14:35;0.50;99.90
40374;DHT22;26079;45.958;12.492;2023-02-04T01:17:01;0.50;99.90
40374;DHT22;26079;45.958;12.492;2023-02-04T01:19:27;0.50;99.90
40374;DHT22;26079;45.958;12.492;2023-02-04T01:21:52;0.60;99.90
40374;DHT22;26079;45.958;12.492;2023-02-04T01:24:18;0.60;99.90
40374;DHT22;26079;45.958;12.492;2023-02-04T01:26:44;0.60;99.90
40374;DHT22;26079;45.958;12.492;2023-02-04T01:29:10;0.50;99.90
40374;DHT22;26079;45.958;12.492;2023-02-04T01:31:35;0.60;99.90
40374;DHT22;26079;45.958;12.492;2023-02-04T01:34:01;0.60;99.90
40374;DHT22;26079;45.958;12.492;2023-02-04T01:36:27;0.60;99.90
40374;DHT22;26079;45.958;12.492;2023-02-04T01:38:53;0.60;99.90
40374;DHT22;26079;45.958;12.492;2023-02-04T01:41:19;0.60;99.90
40374;DHT22;26079;45.958;12.492;2023-02-04T01:43:46;0.60;99.90
40374;DHT22;26079;45.958;12.492;2023-02-04T01:46:12;0.70;99.90
40374;DHT22;26079;45.958;12.492;2023-02-04T01:48:38;0.70;99.90
40374;DHT22;26079;45.958;12.492;2023-02-04T01:51:07;0.70;99.90
40374;DHT22;26079;45.958;12.492;2023-02-04T01:53:33;0.70;99.90
40374;DHT22;26079;45.958;12.492;2023-02-04T01:56:00;0.70;99.90
40374;DHT22;26079;45.958;12.492;2023-02-04T01:58:28;0.70;99.90
40374;DHT22;26079;45.958;12.492;2023-02-04T02:00:54;0.70;99.90
40374;DHT22;26079;45.958;12.492;2023-02-04T02:03:20;0.60;99.90
40374;DHT22;26079;45.958;12.492;2023-02-04T02:05:49;0.50;99.90
40374;DHT22;26079;45.958;12.492;2023-02-04T02:08:16;0.40;99.90
40374;DHT22;26079;45.958;12.492;2023-02-04T02:10:44;0.40;99.90
40374;DHT22;26079;45.958;12.492;2023-02-04T02:13:12;0.30;99.90
40374;DHT22;26079;45.958;12.492;2023-02-04T02:15:40;0.20;99.90
40374;DHT22;26079;45.958;12.492;2023-02-04T02:18:07;0.20;99.90
40374;DHT22;26079;45.958;12.492;2023-02-04T02:20:33;0.20;99.90
40374;DHT22;26079;45.958;12.492;2023-02-04T02:25:27;0.10;99.90
40374;DHT22;26079;45.958;12.492;2023-02-04T02:27:53;0.10;99.90
40374;DHT22;26079;45.958;12.492;2023-02-04T02:30:20;0.10;99.90
40374;DHT22;26079;45.958;12.492;2023-02-04T02:32:47;0.20;99.90
40374;DHT22;26079;45.958;12.492;2023-02-04T02:35:15;0.20;99.90
40374;DHT22;26079;45.958;12.492;2023-02-04T02:37:41;0.20;99.90
40374;DHT22;26079;45.958;12.492;2023-02-04T02:40:07;0.10;99.90
40374;DHT22;26079;45.958;12.492;2023-02-04T02:42:34;0.10;99.90
40374;DHT22;26079;45.958;12.492;2023-02-04T02:45:02;0.20;99.90
40374;DHT22;26079;45.958;12.492;2023-02-04T02:47:30;0.20;99.90
40374;DHT22;26079;45.958;12.492;2023-02-04T02:49:56;0.20;99.90
40374;DHT22;26079;45.958;12.492;2023-02-04T02:52:22;0.20;99.90
40374;DHT22;26079;45.958;12.492;2023-02-04T02:54:48;0.30;99.90
40374;DHT22;26079;45.958;12.492;2023-02-04T02:57:16;0.30;99.90
40374;DHT22;26079;45.958;12.492;2023-02-04T02:59:43;0.30;99.90
40374;DHT22;26079;45.958;12.492;2023-02-04T03:02:11;0.30;99.90
40374;DHT22;26079;45.958;12.492;2023-02-04T03:04:43;0.30;99.90
40374;DHT22;26079;45.958;12.492;2023-02-04T03:07:10;0.40;99.90
40374;DHT22;26079;45.958;12.492;2023-02-04T03:09:36;0.40;99.90
40374;DHT22;26079;45.958;12.492;2023-02-04T03:12:03;0.50;99.90
40374;DHT22;26079;45.958;12.492;2023-02-04T03:14:30;0.50;99.90
40374;DHT22;26079;45.958;12.492;2023-02-04T03:16:56;0.50;99.90
40374;DHT22;26079;45.958;12.492;2023-02-04T03:19:23;0.40;99.90
40374;DHT22;26079;45.958;12.492;2023-02-04T03:21:49;0.40;99.90
40374;DHT22;26079;45.958;12.492;2023-02-04T03:24:16;0.40;99.90
40374;DHT22;26079;45.958;12.492;2023-02-04T03:26:41;0.30;99.90
40374;DHT22;26079;45.958;12.492;2023-02-04T03:29:09;0.20;99.90
40374;DHT22;26079;45.958;12.492;2023-02-04T03:31:35;0.10;99.90
40374;DHT22;26079;45.958;12.492;2023-02-04T03:34:02;0.10;99.90
40374;DHT22;26079;45.958;12.492;2023-02-04T03:36:28;0.00;99.90
40374;DHT22;26079;45.958;12.492;2023-02-04T03:38:54;0.00;99.90
40374;DHT22;26079;45.958;12.492;2023-02-04T03:41:21;0.00;99.90
40374;DHT22;26079;45.958;12.492;2023-02-04T03:43:47;-0.10;99.90
40374;DHT22;26079;45.958;12.492;2023-02-04T03:46:12;-0.10;99.90
40374;DHT22;26079;45.958;12.492;2023-02-04T03:48:38;-0.10;99.90
40374;DHT22;26079;45.958;12.492;2023-02-04T03:51:04;-0.10;99.90
40374;DHT22;26079;45.958;12.492;2023-02-04T03:53:30;-0.10;99.90
40374;DHT22;26079;45.958;12.492;2023-02-04T03:55:55;0.00;99.90
40374;DHT22;26079;45.958;12.492;2023-02-04T03:58:21;0.00;99.90
40374;DHT22;26079;45.958;12.492;2023-02-04T04:00:47;0.10;99.90
40374;DHT22;26079;45.958;12.492;2023-02-04T04:03:13;0.10;99.90
40374;DHT22;26079;45.958;12.492;2023-02-04T04:05:38;0.10;99.90
40374;DHT22;26079;45.958;12.492;2023-02-04T04:08:04;0.20;99.90
40374;DHT22;26079;45.958;12.492;2023-02-04T04:10:30;0.30;99.90
40374;DHT22;26079;45.958;12.492;2023-02-04T04:12:56;0.40;99.90
40374;DHT22;26079;45.958;12.492;2023-02-04T04:15:22;0.50;99.90
40374;DHT22;26079;45.958;12.492;2023-02-04T04:17:47;0.50;99.90
40374;DHT22;26079;45.958;12.492;2023-02-04T04:20:13;0.50;99.90
40374;DHT22;26079;45.958;12.492;2023-02-04T04:22:39;0.60;99.90
40374;DHT22;26079;45.958;12.492;2023-02-04T04:25:06;0.60;99.90
40374;DHT22;26079;45.958;12.492;2023-02-04T04:27:31;0.60;99.90
40374;DHT22;26079;45.958;12.492;2023-02-04T04:29:57;0.70;99.90
40374;DHT22;26079;45.958;12.492;2023-02-04T04:32:23;0.70;99.90
40374;DHT22;26079;45.958;12.492;2023-02-04T04:34:49;0.70;99.90
40374;DHT22;26079;45.958;12.492;2023-02-04T04:37:14;0.60;99.90
40374;DHT22;26079;45.958;12.492;2023-02-04T04:39:40;0.60;99.90
40374;DHT22;26079;45.958;12.492;2023-02-04T04:42:06;0.60;99.90
40374;DHT22;26079;45.958;12.492;2023-02-04T04:44:32;0.50;99.90
40374;DHT22;26079;45.958;12.492;2023-02-04T04:46:57;0.50;99.90
40374;DHT22;26079;45.958;12.492;2023-02-04T04:49:23;0.60;99.90
40374;DHT22;26079;45.958;12.492;2023-02-04T04:51:49;0.50;99.90
40374;DHT22;26079;45.958;12.492;2023-02-04T04:54:15;0.50;99.90
40374;DHT22;26079;45.958;12.492;2023-02-04T04:56:41;0.50;99.90
40374;DHT22;26079;45.958;12.492;2023-02-04T04:59:06;0.50;99.90
40374;DHT22;26079;45.958;12.492;2023-02-04T05:01:32;0.50;99.90
40374;DHT22;26079;45.958;12.492;2023-02-04T05:03:58;0.50;99.90
40374;DHT22;26079;45.958;12.492;2023-02-04T05:06:24;0.50;99.90
40374;DHT22;26079;45.958;12.492;2023-02-04T05:08:50;0.40;99.90
40374;DHT22;26079;45.958;12.492;2023-02-04T05:11:17;0.30;99.90
40374;DHT22;26079;45.958;12.492;2023-02-04T05:13:42;0.30;99.90
40374;DHT22;26079;45.958;12.492;2023-02-04T05:16:08;0.30;99.90
40374;DHT22;26079;45.958;12.492;2023-02-04T05:18:37;0.30;99.90
40374;DHT22;26079;45.958;12.492;2023-02-04T05:21:03;0.30;99.90
40374;DHT22;26079;45.958;12.492;2023-02-04T05:23:29;0.30;99.90
40374;DHT22;26079;45.958;12.492;2023-02-04T05:25:54;0.30;99.90
40374;DHT22;26079;45.958;12.492;2023-02-04T05:28:20;0.30;99.90
40374;DHT22;26079;45.958;12.492;2023-02-04T05:30:46;0.30;99.90
40374;DHT22;26079;45.958;12.492;2023-02-04T05:33:11;0.30;99.90
40374;DHT22;26079;45.958;12.492;2023-02-04T05:35:37;0.30;99.90
40374;DHT22;26079;45.958;12.492;2023-02-04T05:38:03;0.20;99.90
40374;DHT22;26079;45.958;12.492;2023-02-04T05:40:28;0.20;99.90
40374;DHT22;26079;45.958;12.492;2023-02-04T05:42:54;0.20;99.90
40374;DHT22;26079;45.958;12.492;2023-02-04T05:45:20;0.10;99.90
40374;DHT22;26079;45.958;12.492;2023-02-04T05:47:46;0.10;99.90
40374;DHT22;26079;45.958;12.492;2023-02-04T05:50:12;0.10;99.90
40374;DHT22;26079;45.958;12.492;2023-02-04T05:52:37;0.10;99.90
40374;DHT22;26079;45.958;12.492;2023-02-04T05:55:04;0.20;99.90
40374;DHT22;26079;45.958;12.492;2023-02-04T05:57:30;0.20;99.90
40374;DHT22;26079;45.958;12.492;2023-02-04T05:59:56;0.20;99.90
40374;DHT22;26079;45.958;12.492;2023-02-04T06:02:22;0.20;99.90
40374;DHT22;26079;45.958;12.492;2023-02-04T06:04:47;0.20;99.90
40374;DHT22;26079;45.958;12.492;2023-02-04T06:07:13;0.30;99.90
40374;DHT22;26079;45.958;12.492;2023-02-04T06:09:39;0.30;99.90
40374;DHT22;26079;45.958;12.492;2023-02-04T06:12:04;0.30;99.90
40374;DHT22;26079;45.958;12.492;2023-02-04T06:14:30;0.30;99.90
40374;DHT22;26079;45.958;12.492;2023-02-04T06:16:56;0.30;99.90
40374;DHT22;26079;45.958;12.492;2023-02-04T06:19:21;0.40;99.90
40374;DHT22;26079;45.958;12.492;2023-02-04T06:21:47;0.40;99.90
40374;DHT22;26079;45.958;12.492;2023-02-04T06:24:13;0.30;99.90
40374;DHT22;26079;45.958;12.492;2023-02-04T06:26:39;0.50;99.90
40374;DHT22;26079;45.958;12.492;2023-02-04T06:29:04;0.50;99.90
40374;DHT22;26079;45.958;12.492;2023-02-04T06:31:30;0.60;99.90
40374;DHT22;26079;45.958;12.492;2023-02-04T06:33:56;0.60;99.90
40374;DHT22;26079;45.958;12.492;2023-02-04T06:36:21;0.50;99.90
40374;DHT22;26079;45.958;12.492;2023-02-04T06:38:47;0.50;99.90
40374;DHT22;26079;45.958;12.492;2023-02-04T06:41:13;0.50;99.90
40374;DHT22;26079;45.958;12.492;2023-02-04T06:43:38;0.50;99.90
40374;DHT22;26079;45.958;12.492;2023-02-04T06:46:04;0.40;99.90
40374;DHT22;26079;45.958;12.492;2023-02-04T06:48:30;0.40;99.90
40374;DHT22;26079;45.958;12.492;2023-02-04T06:50:55;0.40;99.90
40374;DHT22;26079;45.958;12.492;2023-02-04T06:53:21;0.40;99.90
40374;DHT22;26079;45.958;12.492;2023-02-04T06:55:47;0.30;99.90
40374;DHT22;26079;45.958;12.492;2023-02-04T06:58:12;0.20;99.90
40374;DHT22;26079;45.958;12.492;2023-02-04T07:00:38;0.10;99.90
40374;DHT22;26079;45.958;12.492;2023-02-04T07:03:04;0.10;99.90
40374;DHT22;26079;45.958;12.492;2023-02-04T07:05:32;0.10;99.90
40374;DHT22;26079;45.958;12.492;2023-02-04T07:07:58;0.20;99.90
40374;DHT22;26079;45.958;12.492;2023-02-04T07:10:24;0.30;99.90
40374;DHT22;26079;45.958;12.492;2023-02-04T07:12:50;0.30;99.90
40374;DHT22;26079;45.958;12.492;2023-02-04T07:15:15;0.40;99.90
40374;DHT22;26079;45.958;12.492;2023-02-04T07:17:41;0.50;99.90
40374;DHT22;26079;45.958;12.492;2023-02-04T07:20:08;0.60;99.90
40374;DHT22;26079;45.958;12.492;2023-02-04T07:22:34;0.70;99.90
40374;DHT22;26079;45.958;12.492;2023-02-04T07:25:00;0.80;99.90
40374;DHT22;26079;45.958;12.492;2023-02-04T07:27:26;0.90;99.90
40374;DHT22;26079;45.958;12.492;2023-02-04T07:29:51;1.00;99.90
40374;DHT22;26079;45.958;12.492;2023-02-04T07:32:17;1.00;99.90
40374;DHT22;26079;45.958;12.492;2023-02-04T07:34:43;1.00;99.90
40374;DHT22;26079;45.958;12.492;2023-02-04T07:37:08;1.00;99.90
40374;DHT22;26079;45.958;12.492;2023-02-04T07:39:34;1.10;99.90
40374;DHT22;26079;45.958;12.492;2023-02-04T07:42:00;1.10;99.90
40374;DHT22;26079;45.958;12.492;2023-02-04T07:44:25;1.20;99.90
40374;DHT22;26079;45.958;12.492;2023-02-04T07:46:51;1.30;99.90
40374;DHT22;26079;45.958;12.492;2023-02-04T07:49:17;1.30;99.90
40374;DHT22;26079;45.958;12.492;2023-02-04T07:51:42;1.40;99.90
40374;DHT22;26079;45.958;12.492;2023-02-04T07:54:08;1.50;99.90
40374;DHT22;26079;45.958;12.492;2023-02-04T07:56:34;1.60;99.90
40374;DHT22;26079;45.958;12.492;2023-02-04T07:58:59;1.60;99.90
40374;DHT22;26079;45.958;12.492;2023-02-04T08:01:27;1.70;99.90
40374;DHT22;26079;45.958;12.492;2023-02-04T08:03:53;1.70;99.90
40374;DHT22;26079;45.958;12.492;2023-02-04T08:06:18;1.80;99.90
40374;DHT22;26079;45.958;12.492;2023-02-04T08:08:44;1.80;99.90
40374;DHT22;26079;45.958;12.492;2023-02-04T08:11:10;1.80;99.90
40374;DHT22;26079;45.958;12.492;2023-02-04T08:13:35;1.80;99.90
40374;DHT22;26079;45.958;12.492;2023-02-04T08:16:01;1.80;99.90
40374;DHT22;26079;45.958;12.492;2023-02-04T08:18:27;1.90;99.90
40374;DHT22;26079;45.958;12.492;2023-02-04T08:20:53;2.10;99.90
40374;DHT22;26079;45.958;12.492;2023-02-04T08:23:19;2.20;99.90
40374;DHT22;26079;45.958;12.492;2023-02-04T08:25:45;2.50;99.90
40374;DHT22;26079;45.958;12.492;2023-02-04T08:28:10;2.60;99.90
40374;DHT22;26079;45.958;12.492;2023-02-04T08:30:36;2.70;99.90
40374;DHT22;26079;45.958;12.492;2023-02-04T08:33:02;2.80;99.90
40374;DHT22;26079;45.958;12.492;2023-02-04T08:35:27;3.00;99.90
40374;DHT22;26079;45.958;12.492;2023-02-04T08:37:53;3.20;99.90
40374;DHT22;26079;45.958;12.492;2023-02-04T08:40:19;3.40;99.90
40374;DHT22;26079;45.958;12.492;2023-02-04T08:42:45;3.50;99.90
40374;DHT22;26079;45.958;12.492;2023-02-04T08:45:10;3.70;99.90
40374;DHT22;26079;45.958;12.492;2023-02-04T08:47:36;3.70;99.90
40374;DHT22;26079;45.958;12.492;2023-02-04T08:50:02;3.70;99.90
40374;DHT22;26079;45.958;12.492;2023-02-04T08:52:27;3.80;99.90
40374;DHT22;26079;45.958;12.492;2023-02-04T08:54:53;3.90;99.90
40374;DHT22;26079;45.958;12.492;2023-02-04T08:57:19;4.00;99.90
40374;DHT22;26079;45.958;12.492;2023-02-04T08:59:44;4.10;99.90
40374;DHT22;26079;45.958;12.492;2023-02-04T09:02:10;4.20;99.90
40374;DHT22;26079;45.958;12.492;2023-02-04T09:04:36;4.40;99.90
40374;DHT22;26079;45.958;12.492;2023-02-04T09:07:02;4.50;99.90
40374;DHT22;26079;45.958;12.492;2023-02-04T09:09:28;4.60;99.90
40374;DHT22;26079;45.958;12.492;2023-02-04T09:11:53;4.70;99.90
40374;DHT22;26079;45.958;12.492;2023-02-04T09:14:19;4.80;99.90
40374;DHT22;26079;45.958;12.492;2023-02-04T09:16:45;4.90;99.90
40374;DHT22;26079;45.958;12.492;2023-02-04T09:19:10;5.10;99.90
40374;DHT22;26079;45.958;12.492;2023-02-04T09:21:40;5.30;99.90
40374;DHT22;26079;45.958;12.492;2023-02-04T09:24:06;5.30;99.90
40374;DHT22;26079;45.958;12.492;2023-02-04T09:26:32;5.30;99.90
40374;DHT22;26079;45.958;12.492;2023-02-04T09:28:57;5.40;99.90
40374;DHT22;26079;45.958;12.492;2023-02-04T09:31:23;5.60;99.90
40374;DHT22;26079;45.958;12.492;2023-02-04T09:33:49;5.80;99.90
40374;DHT22;26079;45.958;12.492;2023-02-04T09:36:14;5.90;99.90
40374;DHT22;26079;45.958;12.492;2023-02-04T09:38:40;6.00;99.90
40374;DHT22;26079;45.958;12.492;2023-02-04T09:41:07;6.00;99.90
40374;DHT22;26079;45.958;12.492;2023-02-04T09:43:37;6.00;99.90
40374;DHT22;26079;45.958;12.492;2023-02-04T09:46:04;6.10;99.90
40374;DHT22;26079;45.958;12.492;2023-02-04T09:48:30;6.10;99.90
40374;DHT22;26079;45.958;12.492;2023-02-04T09:51:04;6.20;99.90
40374;DHT22;26079;45.958;12.492;2023-02-04T09:53:31;6.30;99.90
40374;DHT22;26079;45.958;12.492;2023-02-04T09:55:57;6.30;99.90
40374;DHT22;26079;45.958;12.492;2023-02-04T09:58:26;6.30;99.90
40374;DHT22;26079;45.958;12.492;2023-02-04T10:01:10;6.30;99.90
40374;DHT22;26079;45.958;12.492;2023-02-04T10:03:39;6.30;99.90
40374;DHT22;26079;45.958;12.492;2023-02-04T10:06:17;6.40;99.90
40374;DHT22;26079;45.958;12.492;2023-02-04T10:08:44;6.50;99.90
40374;DHT22;26079;45.958;12.492;2023-02-04T10:11:11;6.70;99.90
40374;DHT22;26079;45.958;12.492;2023-02-04T10:13:44;6.80;99.90
40374;DHT22;26079;45.958;12.492;2023-02-04T10:16:17;7.00;99.90
40374;DHT22;26079;45.958;12.492;2023-02-04T10:18:44;7.00;99.90
40374;DHT22;26079;45.958;12.492;2023-02-04T10:21:20;7.10;99.90
40374;DHT22;26079;45.958;12.492;2023-02-04T10:23:50;7.20;99.90
40374;DHT22;26079;45.958;12.492;2023-02-04T10:26:18;7.40;99.90
40374;DHT22;26079;45.958;12.492;2023-02-04T10:28:44;7.70;99.90
40374;DHT22;26079;45.958;12.492;2023-02-04T10:31:30;8.00;99.90
40374;DHT22;26079;45.958;12.492;2023-02-04T10:36:35;8.50;99.20
40374;DHT22;26079;45.958;12.492;2023-02-04T10:39:25;8.60;98.40
40374;DHT22;26079;45.958;12.492;2023-02-04T10:41:53;8.80;98.20
40374;DHT22;26079;45.958;12.492;2023-02-04T10:44:30;9.00;97.50
40374;DHT22;26079;45.958;12.492;2023-02-04T10:47:04;9.10;96.70
40374;DHT22;26079;45.958;12.492;2023-02-04T10:49:30;9.20;96.70
40374;DHT22;26079;45.958;12.492;2023-02-04T10:51:56;9.30;96.30
40374;DHT22;26079;45.958;12.492;2023-02-04T10:54:28;9.30;96.00
40374;DHT22;26079;45.958;12.492;2023-02-04T10:57:17;9.40;95.50
40374;DHT22;26079;45.958;12.492;2023-02-04T10:59:45;9.50;95.20
40374;DHT22;26079;45.958;12.492;2023-02-04T11:04:59;9.70;93.50
40374;DHT22;26079;45.958;12.492;2023-02-04T11:07:25;9.80;93.80
40374;DHT22;26079;45.958;12.492;2023-02-04T11:09:51;9.90;93.00
40374;DHT22;26079;45.958;12.492;2023-02-04T11:12:36;10.00;93.10
40374;DHT22;26079;45.958;12.492;2023-02-04T11:15:02;10.10;92.90
40374;DHT22;26079;45.958;12.492;2023-02-04T11:17:30;10.20;93.30
40374;DHT22;26079;45.958;12.492;2023-02-04T11:19:56;10.20;93.30
40374;DHT22;26079;45.958;12.492;2023-02-04T11:22:34;10.20;93.10
40374;DHT22;26079;45.958;12.492;2023-02-04T11:25:00;10.00;93.20
40374;DHT22;26079;45.958;12.492;2023-02-04T11:27:38;10.00;94.30
40374;DHT22;26079;45.958;12.492;2023-02-04T11:30:19;10.00;94.30
40374;DHT22;26079;45.958;12.492;2023-02-04T11:32:55;10.00;94.60
40374;DHT22;26079;45.958;12.492;2023-02-04T11:35:26;9.90;94.00
40374;DHT22;26079;45.958;12.492;2023-02-04T11:37:54;9.90;94.40
40374;DHT22;26079;45.958;12.492;2023-02-04T11:40:31;9.90;94.10
40374;DHT22;26079;45.958;12.492;2023-02-04T11:43:01;9.80;94.70
40374;DHT22;26079;45.958;12.492;2023-02-04T11:45:31;9.80;94.10
40374;DHT22;26079;45.958;12.492;2023-02-04T11:47:59;9.80;94.50
40374;DHT22;26079;45.958;12.492;2023-02-04T11:50:35;9.80;94.50
40374;DHT22;26079;45.958;12.492;2023-02-04T11:53:03;9.90;94.00
40374;DHT22;26079;45.958;12.492;2023-02-04T11:55:30;10.00;93.60
40374;DHT22;26079;45.958;12.492;2023-02-04T11:57:56;9.90;93.50
40374;DHT22;26079;45.958;12.492;2023-02-04T12:00:31;9.80;93.40
40374;DHT22;26079;45.958;12.492;2023-02-04T12:02:58;9.90;93.80
40374;DHT22;26079;45.958;12.492;2023-02-04T12:05:44;10.00;94.30
40374;DHT22;26079;45.958;12.492;2023-02-04T12:13:23;10.00;94.30
40374;DHT22;26079;45.958;12.492;2023-02-04T12:16:04;10.00;94.00
40374;DHT22;26079;45.958;12.492;2023-02-04T12:18:31;10.00;94.20
40374;DHT22;26079;45.958;12.492;2023-02-04T12:20:59;10.00;94.20
40374;DHT22;26079;45.958;12.492;2023-02-04T12:23:26;10.00;94.00
40374;DHT22;26079;45.958;12.492;2023-02-04T12:25:53;10.00;93.50
40374;DHT22;26079;45.958;12.492;2023-02-04T12:28:18;10.10;93.50
40374;DHT22;26079;45.958;12.492;2023-02-04T12:30:44;10.20;93.10
40374;DHT22;26079;45.958;12.492;2023-02-04T12:33:10;10.30;93.00
40374;DHT22;26079;45.958;12.492;2023-02-04T12:35:36;10.30;91.50
40374;DHT22;26079;45.958;12.492;2023-02-04T12:38:02;10.30;92.40
40374;DHT22;26079;45.958;12.492;2023-02-04T12:40:28;10.40;92.50
40374;DHT22;26079;45.958;12.492;2023-02-04T12:42:54;10.40;92.20
40374;DHT22;26079;45.958;12.492;2023-02-04T12:45:19;10.40;92.10
40374;DHT22;26079;45.958;12.492;2023-02-04T12:47:45;10.40;92.90
40374;DHT22;26079;45.958;12.492;2023-02-04T12:50:14;10.40;92.30
40374;DHT22;26079;45.958;12.492;2023-02-04T12:52:40;10.40;92.70
40374;DHT22;26079;45.958;12.492;2023-02-04T12:55:07;10.30;91.50
40374;DHT22;26079;45.958;12.492;2023-02-04T12:57:33;10.30;91.10
40374;DHT22;26079;45.958;12.492;2023-02-04T13:00:00;10.30;91.10
40374;DHT22;26079;45.958;12.492;2023-02-04T13:02:29;10.30;91.30
40374;DHT22;26079;45.958;12.492;2023-02-04T13:04:54;10.30;91.20
40374;DHT22;26079;45.958;12.492;2023-02-04T13:07:21;10.30;91.10
40374;DHT22;26079;45.958;12.492;2023-02-04T13:09:47;10.40;90.70
40374;DHT22;26079;45.958;12.492;2023-02-04T13:12:14;10.40;90.60
40374;DHT22;26079;45.958;12.492;2023-02-04T13:14:41;10.60;90.30
40374;DHT22;26079;45.958;12.492;2023-02-04T13:17:07;10.60;89.60
40374;DHT22;26079;45.958;12.492;2023-02-04T13:19:33;10.60;89.70
40374;DHT22;26079;45.958;12.492;2023-02-04T13:21:59;10.60;89.80
40374;DHT22;26079;45.958;12.492;2023-02-04T13:24:25;10.60;89.80
40374;DHT22;26079;45.958;12.492;2023-02-04T13:26:51;10.70;90.20
40374;DHT22;26079;45.958;12.492;2023-02-04T13:29:17;10.70;89.90
40374;DHT22;26079;45.958;12.492;2023-02-04T13:31:43;10.70;89.80
40374;DHT22;26079;45.958;12.492;2023-02-04T13:34:08;10.70;89.90
40374;DHT22;26079;45.958;12.492;2023-02-04T13:36:34;10.80;89.80
40374;DHT22;26079;45.958;12.492;2023-02-04T13:39:00;10.80;89.90
40374;DHT22;26079;45.958;12.492;2023-02-04T13:41:26;10.80;90.00
40374;DHT22;26079;45.958;12.492;2023-02-04T13:43:52;11.00;89.00
40374;DHT22;26079;45.958;12.492;2023-02-04T13:46:19;11.00;89.30
40374;DHT22;26079;45.958;12.492;2023-02-04T13:48:44;11.10;89.10
40374;DHT22;26079;45.958;12.492;2023-02-04T13:51:10;11.20;89.00
40374;DHT22;26079;45.958;12.492;2023-02-04T13:53:36;11.20;88.30
40374;DHT22;26079;45.958;12.492;2023-02-04T13:56:02;11.30;87.80
40374;DHT22;26079;45.958;12.492;2023-02-04T13:58:27;11.40;87.40
40374;DHT22;26079;45.958;12.492;2023-02-04T14:00:53;11.50;86.80
40374;DHT22;26079;45.958;12.492;2023-02-04T14:03:25;11.50;87.40
40374;DHT22;26079;45.958;12.492;2023-02-04T14:05:51;11.50;86.40
40374;DHT22;26079;45.958;12.492;2023-02-04T14:08:17;11.50;85.50
40374;DHT22;26079;45.958;12.492;2023-02-04T14:10:43;11.60;85.60
40374;DHT22;26079;45.958;12.492;2023-02-04T14:13:08;11.60;84.90
40374;DHT22;26079;45.958;12.492;2023-02-04T14:15:34;11.50;83.90
40374;DHT22;26079;45.958;12.492;2023-02-04T14:18:02;11.70;81.20
40374;DHT22;26079;45.958;12.492;2023-02-04T14:20:29;11.90;79.60
40374;DHT22;26079;45.958;12.492;2023-02-04T14:22:55;11.90;79.30
40374;DHT22;26079;45.958;12.492;2023-02-04T14:25:21;12.10;78.90
40374;DHT22;26079;45.958;12.492;2023-02-04T14:27:47;12.20;76.30
40374;DHT22;26079;45.958;12.492;2023-02-04T14:30:22;12.30;72.70
40374;DHT22;26079;45.958;12.492;2023-02-04T14:32:48;12.10;73.40
40374;DHT22;26079;45.958;12.492;2023-02-04T14:35:14;12.00;72.70
40374;DHT22;26079;45.958;12.492;2023-02-04T14:37:40;11.80;73.30
40374;DHT22;26079;45.958;12.492;2023-02-04T14:40:06;11.70;74.10
40374;DHT22;26079;45.958;12.492;2023-02-04T14:42:32;11.50;75.00
40374;DHT22;26079;45.958;12.492;2023-02-04T14:44:58;11.40;75.10
40374;DHT22;26079;45.958;12.492;2023-02-04T14:47:24;11.20;76.40
40374;DHT22;26079;45.958;12.492;2023-02-04T14:49:49;11.10;78.30
40374;DHT22;26079;45.958;12.492;2023-02-04T14:52:15;11.00;76.20
40374;DHT22;26079;45.958;12.492;2023-02-04T14:54:41;10.90;74.40
40374;DHT22;26079;45.958;12.492;2023-02-04T14:57:07;11.40;71.10
40374;DHT22;26079;45.958;12.492;2023-02-04T14:59:36;11.70;71.20
40374;DHT22;26079;45.958;12.492;2023-02-04T15:02:03;11.90;69.40
40374;DHT22;26079;45.958;12.492;2023-02-04T15:04:29;12.00;70.90
40374;DHT22;26079;45.958;12.492;2023-02-04T15:06:56;12.00;70.90
40374;DHT22;26079;45.958;12.492;2023-02-04T15:09:23;11.90;70.80
40374;DHT22;26079;45.958;12.492;2023-02-04T15:11:49;11.90;71.50
40374;DHT22;26079;45.958;12.492;2023-02-04T15:14:16;11.80;74.10
40374;DHT22;26079;45.958;12.492;2023-02-04T15:16:42;11.70;72.70
40374;DHT22;26079;45.958;12.492;2023-02-04T15:19:09;11.60;71.60
40374;DHT22;26079;45.958;12.492;2023-02-04T15:21:35;11.50;72.00
40374;DHT22;26079;45.958;12.492;2023-02-04T15:24:01;11.60;71.20
40374;DHT22;26079;45.958;12.492;2023-02-04T15:26:26;11.80;70.40
40374;DHT22;26079;45.958;12.492;2023-02-04T15:28:52;11.80;72.40
40374;DHT22;26079;45.958;12.492;2023-02-04T15:31:20;11.80;70.50
40374;DHT22;26079;45.958;12.492;2023-02-04T15:33:46;11.70;72.10
40374;DHT22;26079;45.958;12.492;2023-02-04T15:36:12;11.50;72.80
40374;DHT22;26079;45.958;12.492;2023-02-04T15:38:37;11.30;73.70